createdAt,value
2018-06-30T00:00:08.700Z,63.64
2018-06-30T00:02:38.004Z,63.64
2018-06-30T00:05:07.447Z,63.41
2018-06-30T00:07:36.663Z,63.35
2018-06-30T00:10:06.358Z,63.06
2018-06-30T00:12:35.586Z,63.42
2018-06-30T00:15:05.156Z,65.24
2018-06-30T00:17:34.666Z,65.05
2018-06-30T00:20:03.987Z,65.03
2018-06-30T00:22:33.217Z,65.01
2018-06-30T00:25:02.461Z,65.79
2018-06-30T00:27:31.687Z,65.04
2018-06-30T00:30:01.231Z,63.09
2018-06-30T00:32:30.527Z,62.97
2018-06-30T00:34:59.715Z,63.53
2018-06-30T00:37:28.937Z,59.45
2018-06-30T00:39:58.127Z,59.15
2018-06-30T00:42:28.219Z,59.89
2018-06-30T00:44:57.399Z,59.38
2018-06-30T00:47:26.649Z,59.55
2018-06-30T00:49:55.855Z,59.97
2018-06-30T00:52:25.840Z,60.15
2018-06-30T00:54:55.331Z,60.70
2018-06-30T00:57:24.707Z,61.64
2018-06-30T00:59:53.876Z,62.25
2018-06-30T01:02:23.145Z,63.16
2018-06-30T01:04:52.847Z,62.80
2018-06-30T01:07:22.219Z,62.32
2018-06-30T01:09:51.663Z,62.34
2018-06-30T01:12:20.845Z,62.36
2018-06-30T01:14:50.059Z,62.43
2018-06-30T01:17:19.279Z,62.80
2018-06-30T01:19:48.487Z,62.59
2018-06-30T01:22:18.353Z,63.05
2018-06-30T01:24:47.967Z,62.90
2018-06-30T01:27:17.179Z,63.07
2018-06-30T01:29:46.527Z,63.68
2018-06-30T01:32:16.352Z,64.04
2018-06-30T01:34:45.627Z,63.62
2018-06-30T01:37:15.127Z,64.30
2018-06-30T01:39:44.323Z,64.96
2018-06-30T01:42:13.495Z,64.89
2018-06-30T01:44:43.275Z,65.52
2018-06-30T01:47:12.423Z,66.82
2018-06-30T01:49:42.071Z,66.94
2018-06-30T01:52:11.278Z,66.21
2018-06-30T01:54:40.715Z,66.74
2018-06-30T01:57:09.955Z,66.93
2018-06-30T01:59:39.727Z,66.91
2018-06-30T02:04:43.466Z,67.43
2018-06-30T02:07:12.775Z,67.87
2018-06-30T02:09:41.987Z,67.81
2018-06-30T02:12:11.469Z,67.78
2018-06-30T02:14:41.690Z,67.67
2018-06-30T02:17:10.895Z,67.68
2018-06-30T02:19:40.384Z,68.30
2018-06-30T02:22:09.607Z,68.83
2018-06-30T02:24:38.807Z,69.22
2018-06-30T02:27:08.099Z,69.44
2018-06-30T02:29:37.379Z,69.91
2018-06-30T02:32:06.579Z,69.99
2018-06-30T02:34:35.983Z,69.40
2018-06-30T02:37:05.187Z,69.72
2018-06-30T02:39:34.451Z,70.38
2018-06-30T02:42:03.679Z,69.95
2018-06-30T02:44:32.886Z,70.37
2018-06-30T02:47:03.759Z,70.28
2018-06-30T02:49:32.987Z,70.37
2018-06-30T02:52:02.459Z,71.17
2018-06-30T02:54:31.727Z,70.59
2018-06-30T02:57:01.895Z,70.33
2018-06-30T02:59:31.095Z,69.88
2018-06-30T03:02:00.387Z,70.28
2018-06-30T03:04:29.674Z,70.08
2018-06-30T03:06:58.890Z,70.29
2018-06-30T03:09:28.524Z,70.68
2018-06-30T03:11:57.688Z,70.38
2018-06-30T03:14:26.887Z,70.92
2018-06-30T03:16:57.723Z,70.95
2018-06-30T03:19:26.933Z,70.93
2018-06-30T03:21:56.145Z,71.00
2018-06-30T03:24:25.323Z,70.83
2018-06-30T03:26:54.551Z,71.51
2018-06-30T03:29:24.335Z,71.21
2018-06-30T03:31:53.600Z,71.78
2018-06-30T03:34:22.838Z,72.13
2018-06-30T03:36:52.084Z,71.82
2018-06-30T03:39:21.254Z,71.86
2018-06-30T03:41:50.500Z,72.09
2018-06-30T03:44:20.003Z,72.13
2018-06-30T03:46:49.199Z,71.65
2018-06-30T03:49:18.671Z,71.71
2018-06-30T03:51:48.023Z,71.57
2018-06-30T03:54:17.235Z,71.97
2018-06-30T03:56:46.512Z,72.16
2018-06-30T03:59:15.991Z,72.26
2018-06-30T04:01:45.347Z,71.81
2018-06-30T04:04:14.583Z,71.14
2018-06-30T04:06:43.756Z,71.63
2018-06-30T04:09:13.967Z,72.17
2018-06-30T04:11:43.171Z,72.27
2018-06-30T04:14:12.598Z,72.16
2018-06-30T04:16:41.808Z,72.17
2018-06-30T04:19:13.978Z,72.03
2018-06-30T04:21:46.380Z,71.83
2018-06-30T04:24:15.659Z,71.84
2018-06-30T04:26:45.169Z,71.75
2018-06-30T04:29:15.004Z,71.12
2018-06-30T04:31:44.183Z,71.13
2018-06-30T04:34:13.794Z,71.13
2018-06-30T04:36:42.979Z,70.43
2018-06-30T04:39:12.202Z,70.04
2018-06-30T04:41:41.775Z,69.18
2018-06-30T04:44:11.083Z,68.17
2018-06-30T04:46:40.275Z,66.51
2018-06-30T04:49:09.496Z,65.91
2018-06-30T04:51:38.710Z,64.38
2018-06-30T04:54:08.331Z,64.39
2018-06-30T04:56:37.577Z,63.68
2018-06-30T04:59:06.803Z,62.74
2018-06-30T05:01:36.283Z,62.01
2018-06-30T05:04:05.764Z,62.69
2018-06-30T05:06:34.963Z,62.22
2018-06-30T05:09:05.895Z,62.31
2018-06-30T05:11:35.115Z,62.44
2018-06-30T05:14:04.387Z,62.31
2018-06-30T05:16:33.595Z,62.06
2018-06-30T05:19:02.860Z,62.08
2018-06-30T05:21:32.039Z,61.64
2018-06-30T05:24:01.327Z,61.64
2018-06-30T05:26:30.484Z,62.05
2018-06-30T05:29:01.577Z,61.65
2018-06-30T05:31:30.807Z,61.45
2018-06-30T05:33:59.998Z,61.51
2018-06-30T05:36:29.882Z,61.68
2018-06-30T05:38:59.376Z,61.00
2018-06-30T05:41:28.935Z,61.31
2018-06-30T05:43:58.183Z,60.33
2018-06-30T05:46:27.391Z,60.33
2018-06-30T05:48:57.919Z,60.81
2018-06-30T05:51:27.190Z,60.57
2018-06-30T05:53:56.374Z,59.91
2018-06-30T05:56:25.890Z,59.93
2018-06-30T05:58:55.182Z,59.42
2018-06-30T06:01:24.911Z,58.51
2018-06-30T06:03:54.115Z,55.71
2018-06-30T06:06:23.307Z,54.01
2018-06-30T06:08:52.710Z,52.92
2018-06-30T06:11:21.939Z,52.23
2018-06-30T06:13:51.103Z,50.51
2018-06-30T06:16:20.885Z,50.53
2018-06-30T06:18:50.049Z,49.63
2018-06-30T06:21:19.488Z,49.72
2018-06-30T06:23:48.891Z,48.46
2018-06-30T06:26:18.163Z,48.17
2018-06-30T06:28:47.313Z,46.34
2018-06-30T06:31:16.511Z,46.24
2018-06-30T06:33:45.748Z,47.21
2018-06-30T06:36:14.999Z,45.19
2018-06-30T06:38:44.159Z,45.85
2018-06-30T06:41:13.334Z,44.77
2018-06-30T06:43:42.482Z,42.96
2018-06-30T06:46:11.652Z,43.19
2018-06-30T06:48:40.796Z,42.62
2018-06-30T06:51:10.393Z,42.50
2018-06-30T06:53:39.558Z,41.32
2018-06-30T06:56:08.731Z,40.97
2018-06-30T06:58:37.916Z,41.94
2018-06-30T07:01:07.218Z,41.33
2018-06-30T07:03:36.410Z,40.17
2018-06-30T07:06:05.721Z,38.75
2018-06-30T07:08:34.911Z,38.13
2018-06-30T07:11:04.769Z,38.77
2018-06-30T07:13:33.931Z,38.45
2018-06-30T07:16:03.426Z,36.52
2018-06-30T07:18:32.631Z,34.95
2018-06-30T07:21:01.823Z,35.85
2018-06-30T07:23:32.124Z,36.15
2018-06-30T07:26:01.291Z,36.23
2018-06-30T07:28:31.359Z,34.28
2018-06-30T07:31:00.531Z,35.35
2018-06-30T07:33:29.764Z,35.16
2018-06-30T07:35:58.930Z,34.40
2018-06-30T07:38:28.315Z,33.89
2018-06-30T07:40:57.818Z,32.60
2018-06-30T07:43:27.180Z,34.87
2018-06-30T07:45:56.451Z,34.27
2018-06-30T07:48:25.644Z,31.96
2018-06-30T07:50:54.855Z,32.09
2018-06-30T07:53:24.055Z,33.08
2018-06-30T07:55:53.478Z,32.02
2018-06-30T07:58:22.705Z,32.14
2018-06-30T08:00:51.879Z,32.36
2018-06-30T08:03:21.082Z,31.58
2018-06-30T08:05:51.383Z,30.22
2018-06-30T08:08:22.088Z,30.95
2018-06-30T08:10:51.264Z,30.03
2018-06-30T08:13:20.495Z,29.33
2018-06-30T08:15:49.655Z,29.36
2018-06-30T08:18:18.844Z,30.11
2018-06-30T08:20:48.088Z,30.51
2018-06-30T08:23:17.274Z,28.25
2018-06-30T08:25:46.487Z,29.58
2018-06-30T08:28:15.655Z,30.85
2018-06-30T08:30:45.470Z,30.80
2018-06-30T08:33:14.695Z,29.75
2018-06-30T08:35:44.013Z,29.85
2018-06-30T08:38:13.151Z,28.72
2018-06-30T08:40:42.344Z,27.25
2018-06-30T08:43:11.496Z,27.61
2018-06-30T08:45:40.707Z,27.62
2018-06-30T08:48:09.927Z,26.72
2018-06-30T08:50:39.111Z,28.01
2018-06-30T08:53:08.391Z,28.11
2018-06-30T08:55:37.691Z,27.17
2018-06-30T08:58:06.883Z,27.48
2018-06-30T09:00:36.048Z,27.04
2018-06-30T09:03:05.423Z,26.48
2018-06-30T09:05:34.955Z,25.97
2018-06-30T09:08:05.903Z,28.31
2018-06-30T09:10:35.126Z,26.70
2018-06-30T09:13:04.332Z,27.49
2018-06-30T09:15:33.535Z,26.17
2018-06-30T09:18:02.859Z,25.59
2018-06-30T09:20:32.115Z,26.18
2018-06-30T09:23:01.923Z,26.93
2018-06-30T09:25:31.159Z,26.57
2018-06-30T09:28:00.307Z,23.88
2018-06-30T09:30:29.545Z,24.62
2018-06-30T09:32:58.678Z,25.01
2018-06-30T09:35:27.907Z,23.08
2018-06-30T09:37:57.149Z,24.71
2018-06-30T09:40:26.363Z,24.15
2018-06-30T09:42:55.589Z,24.31
2018-06-30T09:45:25.439Z,23.03
2018-06-30T09:47:54.644Z,23.25
2018-06-30T09:50:23.824Z,22.21
2018-06-30T09:52:53.027Z,23.39
2018-06-30T09:55:22.247Z,23.54
2018-06-30T09:57:51.511Z,25.10
2018-06-30T10:00:26.628Z,24.20
2018-06-30T10:02:55.744Z,23.92
2018-06-30T10:05:25.166Z,22.89
2018-06-30T10:07:55.475Z,23.18
2018-06-30T10:10:24.747Z,24.34
2018-06-30T10:12:53.915Z,23.86
2018-06-30T10:15:23.240Z,23.32
2018-06-30T10:17:52.548Z,23.57
2018-06-30T10:20:21.707Z,23.70
2018-06-30T10:22:51.214Z,22.90
2018-06-30T10:25:20.423Z,22.61
2018-06-30T10:27:49.715Z,23.16
2018-06-30T10:30:18.882Z,22.54
2018-06-30T10:32:48.323Z,21.53
2018-06-30T10:35:17.759Z,22.58
2018-06-30T10:37:47.291Z,22.68
2018-06-30T10:40:16.481Z,21.36
2018-06-30T10:42:45.668Z,21.87
2018-06-30T10:45:14.962Z,21.18
2018-06-30T10:47:44.155Z,22.08
2018-06-30T10:50:13.315Z,20.67
2018-06-30T10:52:42.724Z,22.44
2018-06-30T10:55:11.930Z,21.44
2018-06-30T10:57:41.227Z,23.05
2018-06-30T11:00:10.631Z,21.05
2018-06-30T11:02:39.920Z,19.53
2018-06-30T11:05:10.040Z,20.78
2018-06-30T11:07:39.383Z,22.98
2018-06-30T11:10:09.303Z,20.47
2018-06-30T11:12:39.181Z,20.88
2018-06-30T11:15:08.324Z,22.30
2018-06-30T11:17:37.959Z,21.51
2018-06-30T11:20:07.300Z,20.68
2018-06-30T11:22:36.574Z,20.87
2018-06-30T11:25:06.366Z,23.05
2018-06-30T11:27:35.656Z,21.45
2018-06-30T11:30:05.371Z,21.54
2018-06-30T11:32:35.167Z,22.77
2018-06-30T11:35:04.703Z,23.09
2018-06-30T11:37:34.107Z,21.47
2018-06-30T11:40:03.399Z,21.22
2018-06-30T11:42:32.707Z,21.32
2018-06-30T11:45:01.981Z,20.38
2018-06-30T11:47:31.216Z,19.61
2018-06-30T11:50:00.375Z,20.74
2018-06-30T11:52:29.707Z,20.80
2018-06-30T11:54:58.968Z,20.13
2018-06-30T11:57:28.202Z,20.64
2018-06-30T11:59:57.432Z,20.35
2018-06-30T12:02:26.902Z,23.07
2018-06-30T12:04:56.206Z,21.99
2018-06-30T12:07:25.436Z,20.36
2018-06-30T12:09:55.423Z,20.66
2018-06-30T12:12:24.570Z,21.02
2018-06-30T12:14:53.831Z,19.80
2018-06-30T12:17:23.360Z,20.76
2018-06-30T12:19:52.876Z,20.24
2018-06-30T12:22:22.455Z,19.91
2018-06-30T12:24:52.730Z,19.66
2018-06-30T12:27:21.903Z,21.29
2018-06-30T12:29:51.103Z,20.39
2018-06-30T12:32:20.380Z,18.95
2018-06-30T12:34:49.506Z,19.77
2018-06-30T12:37:19.235Z,18.97
2018-06-30T12:39:48.462Z,18.75
2018-06-30T12:42:17.915Z,20.41
2018-06-30T12:44:47.107Z,20.22
2018-06-30T12:47:16.364Z,22.08
2018-06-30T12:49:45.919Z,20.32
2018-06-30T12:52:15.095Z,21.37
2018-06-30T12:54:44.250Z,20.41
2018-06-30T12:57:13.867Z,18.98
2018-06-30T12:59:43.028Z,19.61
2018-06-30T13:02:12.359Z,20.19
2018-06-30T13:04:41.776Z,20.10
2018-06-30T13:07:12.023Z,20.14
2018-06-30T13:09:41.208Z,20.06
2018-06-30T13:12:10.511Z,20.81
2018-06-30T13:14:39.887Z,20.54
2018-06-30T13:17:09.523Z,21.02
2018-06-30T13:19:38.838Z,19.50
2018-06-30T13:22:08.045Z,20.89
2018-06-30T13:24:37.837Z,20.29
2018-06-30T13:27:07.039Z,21.55
2018-06-30T13:29:36.216Z,21.38
2018-06-30T13:32:05.702Z,21.62
2018-06-30T13:34:35.003Z,21.13
2018-06-30T13:37:04.446Z,20.50
2018-06-30T13:39:34.163Z,20.73
2018-06-30T13:42:03.515Z,21.65
2018-06-30T13:44:33.077Z,21.37
2018-06-30T13:47:02.403Z,20.58
2018-06-30T13:49:31.884Z,20.89
2018-06-30T13:52:01.633Z,20.13
2018-06-30T13:54:30.946Z,20.89
2018-06-30T13:57:00.404Z,20.24
2018-06-30T13:59:29.710Z,20.87
2018-06-30T14:01:59.010Z,21.35
2018-06-30T14:04:28.288Z,20.68
2018-06-30T14:06:57.758Z,20.24
2018-06-30T14:09:27.070Z,20.56
2018-06-30T14:11:56.375Z,20.66
2018-06-30T14:14:25.690Z,22.18
2018-06-30T14:16:55.237Z,21.63
2018-06-30T14:19:24.428Z,21.79
2018-06-30T14:21:53.867Z,23.22
2018-06-30T14:24:23.441Z,21.59
2018-06-30T14:26:53.416Z,22.81
2018-06-30T14:29:22.747Z,22.40
2018-06-30T14:31:52.267Z,22.80
2018-06-30T14:34:21.685Z,23.98
2018-06-30T14:36:50.972Z,24.05
2018-06-30T14:39:20.156Z,23.39
2018-06-30T14:41:49.404Z,23.56
2018-06-30T14:44:27.667Z,24.95
2018-06-30T14:46:58.064Z,25.41
2018-06-30T14:49:27.431Z,26.07
2018-06-30T14:51:56.710Z,24.67
2018-06-30T14:54:26.035Z,24.94
2018-06-30T14:56:55.267Z,26.67
2018-06-30T14:59:24.777Z,24.77
2018-06-30T15:01:54.078Z,26.65
2018-06-30T15:04:23.423Z,25.10
2018-06-30T15:06:52.668Z,26.26
2018-06-30T15:09:23.889Z,26.27
2018-06-30T15:11:53.188Z,27.11
2018-06-30T15:14:22.472Z,26.26
2018-06-30T15:16:51.743Z,27.49
2018-06-30T15:19:21.015Z,26.96
2018-06-30T15:21:50.227Z,27.48
2018-06-30T15:24:19.407Z,27.36
2018-06-30T15:26:48.605Z,27.62
2018-06-30T15:29:17.815Z,27.65
2018-06-30T15:31:47.015Z,27.96
2018-06-30T15:34:16.215Z,29.10
2018-06-30T15:36:45.527Z,27.71
2018-06-30T15:39:14.816Z,26.77
2018-06-30T15:41:44.303Z,28.25
2018-06-30T15:44:14.291Z,25.87
2018-06-30T15:49:17.511Z,26.71
2018-06-30T15:51:47.176Z,28.22
2018-06-30T15:54:16.586Z,27.41
2018-06-30T15:56:46.283Z,27.38
2018-06-30T15:59:15.683Z,28.44
2018-06-30T16:01:44.911Z,26.85
2018-06-30T16:04:14.199Z,27.14
2018-06-30T16:06:43.431Z,28.06
2018-06-30T16:09:12.683Z,26.94
2018-06-30T16:11:43.096Z,26.58
2018-06-30T16:14:12.591Z,27.35
2018-06-30T16:16:42.868Z,26.23
2018-06-30T16:19:12.052Z,27.53
2018-06-30T16:21:41.251Z,27.95
2018-06-30T16:24:10.424Z,27.10
2018-06-30T16:26:39.668Z,26.06
2018-06-30T16:29:15.970Z,27.88
2018-06-30T16:31:45.275Z,26.45
2018-06-30T16:34:14.444Z,27.76
2018-06-30T16:36:43.609Z,27.58
2018-06-30T16:39:13.263Z,27.21
2018-06-30T16:41:42.455Z,28.00
2018-06-30T16:44:12.147Z,27.54
2018-06-30T16:46:41.391Z,26.85
2018-06-30T16:49:10.628Z,25.42
2018-06-30T16:51:40.343Z,26.51
2018-06-30T16:54:09.535Z,26.06
2018-06-30T16:56:38.759Z,26.41
2018-06-30T16:59:07.925Z,25.95
2018-06-30T17:01:37.072Z,27.05
2018-06-30T17:04:06.275Z,26.51
2018-06-30T17:06:35.545Z,25.36
2018-06-30T17:09:09.228Z,26.01
2018-06-30T17:11:38.411Z,26.40
2018-06-30T17:14:08.366Z,25.30
2018-06-30T17:16:37.648Z,25.17
2018-06-30T17:19:07.607Z,26.27
2018-06-30T17:21:37.316Z,25.21
2018-06-30T17:24:06.626Z,26.42
2018-06-30T17:26:35.991Z,25.84
2018-06-30T17:29:05.443Z,26.41
2018-06-30T17:31:34.874Z,26.17
2018-06-30T17:34:04.270Z,26.38
2018-06-30T17:36:33.456Z,26.01
2018-06-30T17:39:03.770Z,25.84
2018-06-30T17:41:32.975Z,26.45
2018-06-30T17:44:02.495Z,25.91
2018-06-30T17:46:31.715Z,26.67
2018-06-30T17:49:01.056Z,25.54
2018-06-30T17:51:30.334Z,25.62
2018-06-30T17:53:59.551Z,24.98
2018-06-30T17:56:28.705Z,24.51
2018-06-30T17:58:58.029Z,24.65
2018-06-30T18:01:27.407Z,24.29
2018-06-30T18:03:56.592Z,24.77
2018-06-30T18:06:25.778Z,25.26
2018-06-30T18:08:54.964Z,25.44
2018-06-30T18:11:24.631Z,25.42
2018-06-30T18:13:53.859Z,26.00
2018-06-30T18:16:23.032Z,25.28
2018-06-30T18:18:52.322Z,25.29
2018-06-30T18:21:21.531Z,24.68
2018-06-30T18:23:50.807Z,24.24
2018-06-30T18:26:20.091Z,24.67
2018-06-30T18:28:49.259Z,24.94
2018-06-30T18:31:18.446Z,25.56
2018-06-30T18:33:47.605Z,24.89
2018-06-30T18:36:16.963Z,25.16
2018-06-30T18:38:46.446Z,25.06
2018-06-30T18:41:15.932Z,25.62
2018-06-30T18:43:45.213Z,25.36
2018-06-30T18:46:14.379Z,24.55
2018-06-30T18:48:43.563Z,25.78
2018-06-30T18:51:12.899Z,25.98
2018-06-30T18:53:42.667Z,26.14
2018-06-30T18:56:11.852Z,26.38
2018-06-30T18:58:41.018Z,26.34
2018-06-30T19:01:10.203Z,26.11
2018-06-30T19:03:39.407Z,26.97
2018-06-30T19:06:08.586Z,26.59
2018-06-30T19:08:37.761Z,27.02
2018-06-30T19:11:07.362Z,27.67
2018-06-30T19:13:36.543Z,27.75
2018-06-30T19:16:05.782Z,27.58
2018-06-30T19:18:34.984Z,27.32
2018-06-30T19:21:04.343Z,27.59
2018-06-30T19:23:33.539Z,27.95
2018-06-30T19:26:02.815Z,27.52
2018-06-30T19:28:32.404Z,26.49
2018-06-30T19:31:01.577Z,28.13
2018-06-30T19:33:30.939Z,28.27
2018-06-30T19:36:00.091Z,27.83
2018-06-30T19:38:29.311Z,28.13
2018-06-30T19:40:58.475Z,28.13
2018-06-30T19:43:27.614Z,28.11
2018-06-30T19:45:56.799Z,27.79
2018-06-30T19:48:25.958Z,28.34
2018-06-30T19:50:55.155Z,28.57
2018-06-30T19:53:24.336Z,27.74
2018-06-30T19:55:53.635Z,27.56
2018-06-30T19:58:22.847Z,27.85
2018-06-30T20:00:52.072Z,27.31
2018-06-30T20:03:21.400Z,28.43
2018-06-30T20:05:50.571Z,27.85
2018-06-30T20:08:19.751Z,28.87
2018-06-30T20:10:48.975Z,28.90
2018-06-30T20:13:18.275Z,28.62
2018-06-30T20:15:47.432Z,29.21
2018-06-30T20:18:17.044Z,29.14
2018-06-30T20:20:46.416Z,29.21
2018-06-30T20:23:15.863Z,29.08
2018-06-30T20:25:45.167Z,29.39
2018-06-30T20:28:14.419Z,29.26
2018-06-30T20:30:43.991Z,29.38
2018-06-30T20:33:13.205Z,29.48
2018-06-30T20:35:42.367Z,29.71
2018-06-30T20:38:11.584Z,29.77
2018-06-30T20:40:44.735Z,29.57
2018-06-30T20:43:15.231Z,30.52
2018-06-30T20:45:47.644Z,29.93
2018-06-30T20:48:18.685Z,29.95
2018-06-30T20:50:50.864Z,29.86
2018-06-30T20:53:21.302Z,30.30
2018-06-30T20:55:50.983Z,30.50
2018-06-30T20:58:22.806Z,30.40
2018-06-30T21:00:53.090Z,30.02
2018-06-30T21:03:23.969Z,30.21
2018-06-30T21:05:54.162Z,30.57
2018-06-30T21:08:26.170Z,30.63
2018-06-30T21:10:56.266Z,30.85
2018-06-30T21:13:26.761Z,31.45
2018-06-30T21:15:57.733Z,31.12
2018-06-30T21:18:29.271Z,30.68
2018-06-30T21:20:59.551Z,31.01
2018-06-30T21:23:35.191Z,31.28
2018-06-30T21:26:05.649Z,31.31
2018-06-30T21:28:37.517Z,31.19
2018-06-30T21:31:08.157Z,31.28
2018-06-30T21:33:37.673Z,32.67
2018-06-30T21:36:06.967Z,32.12
2018-06-30T21:38:37.347Z,32.58
2018-06-30T21:41:06.747Z,32.54
2018-06-30T21:43:35.959Z,31.59
2018-06-30T21:46:05.807Z,32.71
2018-06-30T21:48:36.704Z,32.50
2018-06-30T21:51:06.527Z,32.32
2018-06-30T21:53:36.598Z,32.99
2018-06-30T21:56:06.576Z,32.63
2018-06-30T21:58:36.627Z,32.75
2018-06-30T22:01:11.596Z,32.95
2018-06-30T22:03:42.017Z,33.68
2018-06-30T22:06:12.540Z,33.61
2018-06-30T22:08:44.081Z,33.54
2018-06-30T22:11:14.100Z,33.09
2018-06-30T22:13:45.250Z,33.94
2018-06-30T22:16:15.535Z,33.40
2018-06-30T22:18:46.872Z,34.46
2018-06-30T22:21:16.792Z,34.29
2018-06-30T22:23:50.471Z,33.94
2018-06-30T22:26:19.740Z,34.57
2018-06-30T22:28:49.552Z,34.36
2018-06-30T22:31:19.117Z,34.78
2018-06-30T22:33:48.275Z,34.35
2018-06-30T22:36:17.520Z,34.80
2018-06-30T22:38:46.723Z,34.94
2018-06-30T22:41:16.000Z,35.28
2018-06-30T22:43:45.194Z,35.55
2018-06-30T22:46:14.816Z,34.92
2018-06-30T22:48:44.682Z,34.99
2018-06-30T22:51:13.860Z,35.43
2018-06-30T22:53:43.040Z,35.67
2018-06-30T22:56:12.214Z,35.39
2018-06-30T22:58:41.359Z,36.06
2018-06-30T23:01:10.528Z,35.73
2018-06-30T23:03:39.747Z,36.23
2018-06-30T23:06:08.948Z,36.66
2018-06-30T23:08:43.871Z,36.69
2018-06-30T23:11:13.287Z,36.71
2018-06-30T23:13:42.495Z,37.34
2018-06-30T23:16:11.985Z,36.76
2018-06-30T23:18:42.711Z,36.49
2018-06-30T23:21:11.871Z,36.95
2018-06-30T23:23:41.045Z,36.94
2018-06-30T23:26:10.407Z,36.82
2018-06-30T23:28:39.571Z,37.50
2018-06-30T23:31:08.815Z,37.17
2018-06-30T23:33:38.664Z,37.18
2018-06-30T23:36:08.370Z,37.91
2018-06-30T23:38:37.846Z,37.59
2018-06-30T23:41:07.329Z,37.44
2018-06-30T23:43:36.747Z,37.90
2018-06-30T23:46:05.939Z,38.08
2018-06-30T23:48:35.380Z,38.01
2018-06-30T23:51:04.551Z,38.18
2018-06-30T23:53:33.796Z,38.07
2018-06-30T23:56:03.007Z,38.89
2018-06-30T23:58:32.318Z,38.63
